Time;durP1;ratioP1;P1;durP2;ratioP2;P2;SDS_P1;SDS_P2;PMS_P1;PMS_P2;Temp;Humidity;BMP_temperature;BMP_pressure;BME280_temperature;BME280_humidity;BME280_pressure;Samples;Min_cycle;Max_cycle;Signal;HPM_P1;HPM_P2
2023/03/12 00:02:13;;;;;;;13.88;5.32;;;;;;;2.65;73.36;100977.19;5036324;28;20108;-73
2023/03/12 00:04:39;;;;;;;16.83;5.68;;;;;;;2.67;73.75;100977.97;5054606;28;20025;-72
2023/03/12 00:07:05;;;;;;;15.68;5.13;;;;;;;2.69;73.80;100973.47;5032255;28;20136;-73
2023/03/12 00:09:34;;;;;;;13.52;4.95;;;;;;;2.67;73.33;100967.38;5050211;28;20511;-72
2023/03/12 00:11:59;;;;;;;16.85;5.03;;;;;;;2.68;73.04;100969.09;5052556;28;20473;-72
2023/03/12 00:14:24;;;;;;;21.67;5.47;;;;;;;2.68;72.47;100963.81;5037016;28;20107;-72
2023/03/12 00:16:50;;;;;;;16.67;4.90;;;;;;;2.67;73.10;100964.72;5055201;28;20021;-72
2023/03/12 00:19:15;;;;;;;18.13;5.63;;;;;;;2.67;73.49;100958.56;5054980;28;20036;-73
2023/03/12 00:21:40;;;;;;;19.20;5.30;;;;;;;2.66;72.38;100957.66;5053910;28;20112;-72
2023/03/12 00:24:06;;;;;;;11.40;4.43;;;;;;;2.66;71.99;100955.03;5053990;28;20033;-72
2023/03/12 00:26:32;;;;;;;15.52;5.53;;;;;;;2.65;72.53;100934.72;5036089;28;20028;-72
2023/03/12 00:28:57;;;;;;;17.30;5.78;;;;;;;2.66;71.35;100931.13;5053018;28;20384;-72
2023/03/12 00:31:30;;;;;;;15.73;5.10;;;;;;;2.69;72.26;100930.16;5034981;28;20465;-73
2023/03/12 00:33:56;;;;;;;13.77;4.80;;;;;;;2.69;72.53;100928.34;5036103;28;20021;-72
2023/03/12 00:36:25;;;;;;;16.48;5.60;;;;;;;2.70;71.90;100930.09;5053508;28;20083;-72
2023/03/12 00:38:51;;;;;;;14.50;4.88;;;;;;;2.69;71.52;100925.69;5052538;28;20574;-72
2023/03/12 00:41:18;;;;;;;17.88;5.60;;;;;;;2.70;71.60;100924.78;5040490;28;20428;-73
2023/03/12 00:43:45;;;;;;;17.75;5.55;;;;;;;2.72;71.75;100927.38;5036500;28;20036;-72
2023/03/12 00:46:10;;;;;;;18.77;6.00;;;;;;;2.72;70.52;100922.06;5035769;28;20040;-73
2023/03/12 00:48:36;;;;;;;14.35;4.97;;;;;;;2.73;71.89;100922.00;5031829;28;20028;-72
2023/03/12 00:51:01;;;;;;;13.82;4.63;;;;;;;2.75;71.13;100916.63;5049523;28;20497;-72
2023/03/12 00:53:26;;;;;;;14.80;5.05;;;;;;;2.74;70.04;100914.94;5053505;28;20021;-72
2023/03/12 00:55:51;;;;;;;19.55;5.78;;;;;;;2.77;70.32;100912.16;5035164;28;20025;-72
2023/03/12 00:58:17;;;;;;;10.82;4.13;;;;;;;2.78;70.95;100912.09;5033330;28;20506;-72
2023/03/12 01:00:42;;;;;;;14.98;5.25;;;;;;;2.80;70.92;100910.22;5052237;28;20500;-72
2023/03/12 01:03:07;;;;;;;13.57;4.95;;;;;;;2.80;69.74;100910.22;5052554;28;20028;-72
2023/03/12 01:05:36;;;;;;;15.27;4.70;;;;;;;2.80;69.47;100910.22;5058870;28;20055;-73
2023/03/12 01:08:03;;;;;;;14.57;4.70;;;;;;;2.80;70.37;100899.59;5071582;28;20024;-72
2023/03/12 01:10:29;;;;;;;17.20;5.85;;;;;;;2.82;69.62;100888.94;5072356;28;20028;-72
2023/03/12 01:12:54;;;;;;;19.40;5.43;;;;;;;2.82;69.12;100885.41;5073247;28;20030;-72
2023/03/12 01:15:19;;;;;;;15.35;5.25;;;;;;;2.83;70.29;100888.00;5053987;28;20020;-72
2023/03/12 01:17:45;;;;;;;16.80;5.80;;;;;;;2.86;69.92;100884.38;5053925;28;20111;-73
2023/03/12 01:20:10;;;;;;;17.70;5.07;;;;;;;2.84;69.99;100884.44;5071886;28;20029;-72
2023/03/12 01:22:36;;;;;;;18.92;5.50;;;;;;;2.85;69.30;100886.16;5072128;28;20466;-72
2023/03/12 01:25:01;;;;;;;18.02;5.53;;;;;;;2.85;70.24;100880.00;5053533;28;20116;-72
2023/03/12 01:27:27;;;;;;;18.33;5.18;;;;;;;2.85;70.19;100885.28;5072270;28;20028;-72
2023/03/12 01:29:52;;;;;;;15.10;5.70;;;;;;;2.84;70.56;100889.75;5073189;28;20103;-72
2023/03/12 01:32:18;;;;;;;14.82;4.85;;;;;;;2.85;71.24;100887.94;5073006;28;20024;-72
2023/03/12 01:34:43;;;;;;;15.18;5.40;;;;;;;2.84;70.10;100895.06;5072890;28;20349;-72
2023/03/12 01:37:09;;;;;;;14.95;5.68;;;;;;;2.84;69.83;100888.88;5051676;28;20527;-72
2023/03/12 01:39:34;;;;;;;17.27;5.85;;;;;;;2.84;70.60;100881.78;5070458;28;20024;-72
2023/03/12 01:42:00;;;;;;;15.13;5.28;;;;;;;2.85;70.68;100874.69;5070971;28;20027;-72
2023/03/12 01:44:26;;;;;;;19.90;6.22;;;;;;;2.85;70.28;100864.06;5072697;28;20410;-72
2023/03/12 01:46:51;;;;;;;16.33;5.40;;;;;;;2.86;70.42;100861.34;5070555;28;20040;-72
2023/03/12 01:49:25;;;;;;;19.63;6.63;;;;;;;2.87;70.97;100856.88;5070797;28;20075;-72
2023/03/12 01:51:56;;;;;;;18.73;7.10;;;;;;;2.88;70.36;100859.47;5072140;28;20032;-72
2023/03/12 01:54:30;;;;;;;18.75;5.35;;;;;;;2.87;71.00;100857.78;5071909;28;20031;-72
2023/03/12 01:56:56;;;;;;;17.00;6.03;;;;;;;2.89;70.59;100852.41;5068784;28;20059;-72
2023/03/12 01:59:28;;;;;;;15.43;5.57;;;;;;;2.89;70.70;100853.25;5071033;28;20051;-72
2023/03/12 02:01:54;;;;;;;17.58;5.45;;;;;;;2.89;70.02;100847.09;5053258;28;20028;-72
2023/03/12 02:04:23;;;;;;;21.17;5.80;;;;;;;2.89;70.09;100849.75;5053329;28;20103;-72
2023/03/12 02:07:00;;;;;;;20.55;6.82;;;;;;;2.90;71.02;100840.81;5071567;28;20055;-72
2023/03/12 02:09:26;;;;;;;16.75;5.80;;;;;;;2.90;70.96;100843.47;5072463;28;20033;-71
2023/03/12 02:11:51;;;;;;;19.77;6.45;;;;;;;2.89;71.53;100850.59;5070899;28;20034;-72
2023/03/12 02:14:17;;;;;;;18.25;6.25;;;;;;;2.88;71.12;100830.28;5070842;28;20028;-71
2023/03/12 02:16:43;;;;;;;19.85;6.35;;;;;;;2.88;71.52;100834.72;5071042;28;20024;-71
2023/03/12 02:19:18;;;;;;;19.50;6.20;;;;;;;2.88;71.46;100822.31;5072389;28;20029;-71
2023/03/12 02:21:43;;;;;;;17.58;6.22;;;;;;;2.86;71.57;100813.56;5061495;28;20051;-71
2023/03/12 02:24:18;;;;;;;19.60;6.18;;;;;;;2.90;71.32;100808.97;5051766;28;20498;-72
2023/03/12 02:26:43;;;;;;;15.32;5.75;;;;;;;2.90;71.49;100812.50;5044246;28;20021;-71
2023/03/12 02:29:10;;;;;;;19.30;5.90;;;;;;;2.89;71.61;100807.28;5071647;28;20032;-72
2023/03/12 02:31:47;;;;;;;20.85;6.07;;;;;;;2.90;71.59;100814.28;5053253;28;20032;-71
2023/03/12 02:34:13;;;;;;;19.92;7.25;;;;;;;2.88;72.25;100819.66;5072819;28;20073;-71
2023/03/12 02:36:38;;;;;;;20.35;6.25;;;;;;;2.91;72.33;100813.38;5047887;28;20036;-71
2023/03/12 02:39:04;;;;;;;17.30;5.80;;;;;;;2.90;72.12;100815.16;5071422;28;20028;-71
2023/03/12 02:41:36;;;;;;;18.63;6.18;;;;;;;2.90;73.05;100811.63;5051958;28;20549;-71
2023/03/12 02:44:18;;;;;;;19.15;6.40;;;;;;;2.92;72.63;100817.75;5053170;28;20025;-72
2023/03/12 02:46:48;;;;;;;18.83;6.55;;;;;;;2.89;72.69;100821.41;5071698;28;20055;-70
2023/03/12 02:49:15;;;;;;;19.48;6.70;;;;;;;2.89;73.52;100823.19;5067038;28;20029;-71
2023/03/12 02:51:42;;;;;;;18.05;6.45;;;;;;;2.89;73.71;100823.19;5073014;28;20024;-72
2023/03/12 02:54:08;;;;;;;16.52;6.03;;;;;;;2.89;74.36;100812.56;5052939;28;20052;-71
2023/03/12 02:56:34;;;;;;;20.05;7.30;;;;;;;2.88;78.00;100816.16;5070306;28;20067;-71
2023/03/12 02:58:59;;;;;;;18.05;6.50;;;;;;;2.87;78.26;100814.41;5052671;28;20056;-71
2023/03/12 03:01:25;;;;;;;21.10;6.78;;;;;;;2.87;79.50;100817.06;5071086;28;20429;-71
2023/03/12 03:03:51;;;;;;;19.20;6.70;;;;;;;2.85;78.74;100808.31;5071287;28;20032;-71
2023/03/12 03:06:17;;;;;;;19.30;6.57;;;;;;;2.83;81.66;100795.13;5071590;28;20047;-71
2023/03/12 03:08:42;;;;;;;18.88;6.07;;;;;;;2.84;81.37;100803.94;5053848;28;20024;-71
2023/03/12 03:11:08;;;;;;;15.75;5.63;;;;;;;2.82;83.55;100806.66;5070888;28;20036;-71
2023/03/12 03:13:34;;;;;;;19.40;6.00;;;;;;;2.79;82.53;100809.44;5053183;28;20024;-71
2023/03/12 03:16:00;;;;;;;19.55;6.90;;;;;;;2.78;83.18;100805.03;5072049;28;20410;-71
2023/03/12 03:18:26;;;;;;;18.70;5.75;;;;;;;2.75;83.82;100811.38;5054353;28;20050;-71
2023/03/12 03:21:03;;;;;;;20.40;7.35;;;;;;;2.76;82.96;100802.44;5071060;28;20063;-70
2023/03/12 03:23:28;;;;;;;19.48;6.40;;;;;;;2.73;82.04;100799.94;5071931;28;20021;-71
2023/03/12 03:25:55;;;;;;;18.08;6.55;;;;;;;2.73;82.92;100799.94;5071105;28;20025;-71
2023/03/12 03:28:23;;;;;;;16.67;5.50;;;;;;;2.73;84.03;100796.44;5071241;28;20021;-71
2023/03/12 03:30:52;;;;;;;14.93;5.45;;;;;;;2.72;85.24;100798.19;5071284;28;20021;-71
2023/03/12 03:33:18;;;;;;;14.98;5.20;;;;;;;2.71;84.18;100796.50;5050103;28;20024;-71
2023/03/12 03:35:43;;;;;;;18.02;5.80;;;;;;;2.71;84.22;100799.16;5072173;28;20437;-70
2023/03/12 03:38:08;;;;;;;16.00;5.80;;;;;;;2.71;84.82;100791.19;5069288;28;20017;-71
2023/03/12 03:40:34;;;;;;;15.38;5.43;;;;;;;2.70;84.96;100788.59;5071943;28;20085;-71
2023/03/12 03:42:59;;;;;;;15.50;5.63;;;;;;;2.70;85.43;100780.63;5053332;28;20032;-71
2023/03/12 03:45:24;;;;;;;16.23;5.10;;;;;;;2.70;85.23;100772.66;5071927;28;20037;-71
2023/03/12 03:47:50;;;;;;;16.90;5.35;;;;;;;2.69;85.35;100766.47;5054645;28;20116;-71
2023/03/12 03:50:15;;;;;;;19.65;6.03;;;;;;;2.69;84.87;100761.19;5054566;28;20068;-71
2023/03/12 03:52:41;;;;;;;15.70;5.45;;;;;;;2.70;85.33;100754.94;5054202;28;20026;-71
2023/03/12 03:55:06;;;;;;;17.90;6.05;;;;;;;2.69;85.00;100747.91;5071405;28;20024;-71
2023/03/12 03:57:32;;;;;;;18.48;5.82;;;;;;;2.69;85.23;100739.09;5054197;28;20156;-71
2023/03/12 03:59:57;;;;;;;18.80;6.10;;;;;;;2.70;85.60;100741.69;5072334;28;20032;-72
2023/03/12 04:02:24;;;;;;;19.65;6.15;;;;;;;2.70;85.21;100744.34;5053493;28;20032;-71
2023/03/12 04:04:49;;;;;;;18.83;6.57;;;;;;;2.68;84.15;100748.84;5071508;28;20035;-71
2023/03/12 04:07:15;;;;;;;18.48;6.45;;;;;;;2.66;85.44;100745.38;5071012;28;20037;-72
2023/03/12 04:09:40;;;;;;;19.23;6.35;;;;;;;2.66;85.46;100748.03;5053948;28;20401;-72
2023/03/12 04:12:06;;;;;;;17.10;6.53;;;;;;;2.65;84.82;100740.16;5071557;28;20392;-72
2023/03/12 04:14:31;;;;;;;18.33;6.25;;;;;;;2.65;85.58;100733.06;5073962;28;20025;-72
2023/03/12 04:16:57;;;;;;;18.35;6.57;;;;;;;2.64;85.12;100718.06;5073997;28;20036;-72
2023/03/12 04:19:22;;;;;;;17.30;6.25;;;;;;;2.67;85.74;100722.38;5073983;28;20544;-72
2023/03/12 04:21:47;;;;;;;16.58;6.13;;;;;;;2.68;86.22;100724.09;5073898;28;20032;-72
2023/03/12 04:24:15;;;;;;;19.35;5.70;;;;;;;2.67;85.04;100720.59;5074127;28;20116;-72
2023/03/12 04:26:40;;;;;;;18.83;5.75;;;;;;;2.67;85.25;100707.31;5066524;28;20124;-72
2023/03/12 04:29:06;;;;;;;16.48;5.55;;;;;;;2.67;85.04;100707.31;5055633;28;20108;-72
2023/03/12 04:31:31;;;;;;;15.25;5.70;;;;;;;2.68;85.13;100692.25;5074046;28;20031;-71
2023/03/12 04:33:57;;;;;;;18.25;6.05;;;;;;;2.67;85.18;100699.34;5074362;28;20025;-72
2023/03/12 04:36:22;;;;;;;17.15;5.63;;;;;;;2.68;85.13;100686.94;5052636;28;20056;-72
2023/03/12 04:38:48;;;;;;;18.83;6.40;;;;;;;2.69;85.80;100683.38;5070701;28;20082;-72
2023/03/12 04:41:14;;;;;;;17.88;5.53;;;;;;;2.71;86.33;100686.81;5060154;28;20021;-72
2023/03/12 04:43:40;;;;;;;17.67;5.50;;;;;;;2.72;85.69;100683.22;5074051;28;20053;-72
2023/03/12 04:46:06;;;;;;;22.70;6.45;;;;;;;2.71;85.96;100698.31;5073891;28;20066;-71
2023/03/12 04:48:32;;;;;;;18.20;6.00;;;;;;;2.74;86.83;100695.50;5073911;28;20630;-72
2023/03/12 04:50:58;;;;;;;22.27;5.80;;;;;;;2.74;86.36;100692.00;5073622;28;20064;-72
2023/03/12 04:53:24;;;;;;;17.10;5.43;;;;;;;2.74;85.71;100690.22;5073779;28;20055;-72
2023/03/12 04:55:49;;;;;;;17.13;5.60;;;;;;;2.75;86.36;100689.28;5073346;28;20368;-72
2023/03/12 04:58:15;;;;;;;17.70;5.65;;;;;;;2.77;86.67;100678.59;5073563;28;20025;-72
2023/03/12 05:00:41;;;;;;;19.13;6.10;;;;;;;2.77;87.35;100674.16;5055192;28;20033;-72
2023/03/12 05:03:06;;;;;;;16.85;5.20;;;;;;;2.79;86.61;100674.94;5073362;28;20052;-72
2023/03/12 05:05:32;;;;;;;18.90;5.50;;;;;;;2.79;87.02;100672.28;5048695;28;20086;-72
2023/03/12 05:07:58;;;;;;;14.85;4.95;;;;;;;2.78;87.33;100659.97;5053360;28;20043;-72
2023/03/12 05:10:23;;;;;;;16.85;5.85;;;;;;;2.79;87.92;100652.84;5052987;28;20332;-73
2023/03/12 05:12:48;;;;;;;14.63;5.10;;;;;;;2.78;87.75;100643.16;5053178;28;20510;-72
2023/03/12 05:15:16;;;;;;;19.50;5.88;;;;;;;2.79;88.66;100643.09;5053257;28;20025;-72
2023/03/12 05:17:42;;;;;;;16.40;5.68;;;;;;;2.77;89.38;100639.66;5035164;28;20798;-72
2023/03/12 05:20:09;;;;;;;15.20;4.80;;;;;;;2.76;90.68;100642.38;5034787;28;20179;-72
2023/03/12 05:22:34;;;;;;;16.80;5.25;;;;;;;2.76;92.62;100635.25;5033154;28;20021;-72
2023/03/12 05:25:00;;;;;;;13.93;5.18;;;;;;;2.76;93.98;100643.22;5033630;28;20031;-72
2023/03/12 05:27:25;;;;;;;18.80;5.70;;;;;;;2.77;93.91;100641.44;5052734;28;20025;-72
2023/03/12 05:29:51;;;;;;;23.92;6.05;;;;;;;2.78;93.89;100638.72;5051788;28;20036;-72
2023/03/12 05:32:17;;;;;;;16.42;4.70;;;;;;;2.78;95.21;100644.03;5053302;28;20039;-72
2023/03/12 05:34:42;;;;;;;19.90;5.47;;;;;;;2.78;95.76;100633.41;5034408;28;20025;-72
2023/03/12 05:37:07;;;;;;;16.52;4.88;;;;;;;2.79;95.68;100632.47;5052042;28;20112;-72
2023/03/12 05:39:33;;;;;;;17.23;5.40;;;;;;;2.80;95.88;100628.03;5052399;28;20055;-72
2023/03/12 05:41:59;;;;;;;15.38;5.30;;;;;;;2.76;95.90;100616.69;5033982;28;20020;-72
2023/03/12 05:44:25;;;;;;;19.27;5.43;;;;;;;2.77;96.40;100615.75;5052030;28;20025;-72
2023/03/12 05:46:51;;;;;;;15.75;4.93;;;;;;;2.77;96.92;100621.06;5053140;28;20079;-72
2023/03/12 05:49:17;;;;;;;17.13;6.22;;;;;;;2.79;97.85;100621.00;5052363;28;20451;-72
2023/03/12 05:51:42;;;;;;;18.00;5.70;;;;;;;2.78;98.86;100616.63;5053027;28;20033;-72
2023/03/12 05:54:09;;;;;;;16.02;5.30;;;;;;;2.77;99.65;100618.41;5035104;28;20027;-72
2023/03/12 05:56:37;;;;;;;20.05;5.80;;;;;;;2.80;99.78;100623.59;5034683;28;20368;-71
2023/03/12 05:59:03;;;;;;;16.33;5.30;;;;;;;2.82;99.86;100617.34;5052132;28;20021;-72
2023/03/12 06:01:30;;;;;;;18.45;5.65;;;;;;;2.79;100.00;100621.00;5052353;28;20078;-72
2023/03/12 06:03:56;;;;;;;16.48;5.45;;;;;;;2.79;100.00;100615.69;5051663;28;20108;-72
2023/03/12 06:06:22;;;;;;;14.93;5.55;;;;;;;2.80;100.00;100628.03;5033699;28;20666;-72
2023/03/12 06:08:48;;;;;;;19.35;5.95;;;;;;;2.80;100.00;100628.88;5052142;28;20043;-72
2023/03/12 06:11:13;;;;;;;18.42;6.28;;;;;;;2.82;100.00;100628.81;5020904;28;20079;-71
2023/03/12 06:13:39;;;;;;;17.45;5.60;;;;;;;2.84;100.00;100626.97;5052871;28;20526;-72
2023/03/12 06:16:07;;;;;;;16.92;5.97;;;;;;;2.87;100.00;100633.91;5052554;28;20107;-72
2023/03/12 06:18:34;;;;;;;19.98;6.50;;;;;;;2.90;100.00;100633.78;5052606;28;20520;-72
2023/03/12 06:21:15;;;;;;;17.48;5.72;;;;;;;2.92;100.00;100642.56;5051953;28;20057;-72
2023/03/12 06:23:41;;;;;;;16.10;5.63;;;;;;;2.92;100.00;100648.72;5052652;28;20504;-72
2023/03/12 06:26:07;;;;;;;19.55;5.80;;;;;;;2.95;100.00;100647.72;5034267;28;20056;-71
2023/03/12 06:28:33;;;;;;;18.63;5.90;;;;;;;2.95;100.00;100637.94;5051971;28;20860;-72
2023/03/12 06:30:59;;;;;;;17.17;6.20;;;;;;;2.97;100.00;100636.09;5034350;28;20055;-72
2023/03/12 06:33:25;;;;;;;18.70;6.07;;;;;;;2.97;100.00;100628.16;5052418;28;20052;-72
2023/03/12 06:35:59;;;;;;;20.23;6.28;;;;;;;2.98;100.00;100626.34;5052281;28;20033;-72
2023/03/12 06:38:25;;;;;;;23.58;6.22;;;;;;;2.95;100.00;100624.69;5052268;28;20374;-72
2023/03/12 06:40:59;;;;;;;19.60;5.35;;;;;;;2.98;100.00;100619.22;5031803;28;20029;-72
2023/03/12 06:43:26;;;;;;;18.02;6.15;;;;;;;2.99;100.00;100617.44;5034702;28;20021;-71
2023/03/12 06:45:54;;;;;;;20.10;4.95;;;;;;;2.98;100.00;100611.25;5052231;28;20029;-72
2023/03/12 06:48:19;;;;;;;17.90;6.53;;;;;;;2.98;100.00;100605.94;5052040;28;20520;-72
2023/03/12 06:50:44;;;;;;;18.42;6.80;;;;;;;3.00;100.00;100592.59;5051206;28;20100;-72
2023/03/12 06:53:10;;;;;;;16.88;6.10;;;;;;;3.00;100.00;100581.13;5051763;28;20388;-72
2023/03/12 06:55:35;;;;;;;19.13;6.30;;;;;;;3.00;100.00;100592.59;5032236;28;20360;-73
2023/03/12 06:58:02;;;;;;;17.95;6.20;;;;;;;3.00;100.00;100587.28;5050806;28;20028;-72
2023/03/12 07:00:29;;;;;;;17.70;6.75;;;;;;;3.01;100.00;100581.06;5047899;28;20034;-72
2023/03/12 07:02:54;;;;;;;17.95;6.40;;;;;;;3.03;100.00;100589.84;5049145;28;20036;-72
2023/03/12 07:05:19;;;;;;;20.23;6.95;;;;;;;3.03;100.00;100576.56;5055338;28;20033;-71
2023/03/12 07:07:45;;;;;;;21.98;7.07;;;;;;;3.03;100.00;100571.25;5070834;28;20448;-73
2023/03/12 07:10:11;;;;;;;18.33;6.15;;;;;;;3.04;100.00;100574.75;5053622;28;20036;-73
2023/03/12 07:12:36;;;;;;;19.30;6.47;;;;;;;3.07;100.00;100577.28;5070846;28;20367;-73
2023/03/12 07:15:02;;;;;;;18.15;6.05;;;;;;;3.07;100.00;100577.28;5070429;28;20096;-73
2023/03/12 07:17:27;;;;;;;16.50;5.70;;;;;;;3.08;100.00;100582.50;5071234;28;20032;-73
2023/03/12 07:19:53;;;;;;;18.40;6.30;;;;;;;3.10;100.00;100577.97;5070630;28;20056;-72
2023/03/12 07:22:18;;;;;;;15.20;5.90;;;;;;;3.13;100.00;100587.59;5070544;28;20032;-73
2023/03/12 07:24:43;;;;;;;24.20;7.10;;;;;;;3.14;100.00;100587.53;5071285;28;20127;-73
2023/03/12 07:27:08;;;;;;;22.55;7.28;;;;;;;3.15;100.00;100589.25;5052707;28;20020;-73
2023/03/12 07:29:34;;;;;;;19.25;7.00;;;;;;;3.16;100.00;100592.75;5052791;28;20036;-73
2023/03/12 07:31:59;;;;;;;19.23;6.75;;;;;;;3.18;100.00;100587.38;5068248;28;20039;-73
2023/03/12 07:34:24;;;;;;;18.58;6.63;;;;;;;3.19;100.00;100599.72;5071064;28;20020;-73
2023/03/12 07:36:50;;;;;;;19.35;7.63;;;;;;;3.21;100.00;100595.22;5070146;28;20109;-73
2023/03/12 07:39:15;;;;;;;19.90;8.00;;;;;;;3.21;100.00;100593.44;5071478;28;20024;-73
2023/03/12 07:41:41;;;;;;;20.25;6.93;;;;;;;3.21;100.00;100606.69;5068819;28;20467;-73
2023/03/12 07:44:06;;;;;;;18.00;7.20;;;;;;;3.24;100.00;100593.28;5069229;28;20067;-73
2023/03/12 07:46:32;;;;;;;24.15;7.47;;;;;;;3.27;100.00;100589.63;5074819;28;20135;-71
2023/03/12 07:48:57;;;;;;;19.35;7.22;;;;;;;3.31;100.00;100596.53;5055882;28;20020;-71
2023/03/12 07:51:22;;;;;;;19.50;7.63;;;;;;;3.32;100.00;100603.53;5075903;28;20372;-71
2023/03/12 07:53:48;;;;;;;22.98;8.70;;;;;;;3.35;100.00;100590.09;5074937;28;20025;-71
2023/03/12 07:56:13;;;;;;;18.60;7.28;;;;;;;3.36;100.00;100597.16;5074216;28;20111;-71
2023/03/12 07:58:38;;;;;;;24.50;8.50;;;;;;;3.40;100.00;100597.88;5075493;28;20580;-71
2023/03/12 08:01:05;;;;;;;20.98;8.05;;;;;;;3.44;100.00;100595.00;5074762;28;20024;-71
2023/03/12 08:03:31;;;;;;;20.55;8.40;;;;;;;3.45;100.00;100599.34;5074371;28;20067;-71
2023/03/12 08:06:01;;;;;;;20.23;7.97;;;;;;;3.48;100.00;100588.63;5063465;28;20123;-71
2023/03/12 08:08:28;;;;;;;21.45;8.85;;;;;;;3.52;100.00;100597.28;5074668;28;20490;-71
2023/03/12 08:10:54;;;;;;;19.55;8.02;;;;;;;3.56;100.00;100592.66;5068145;28;20023;-72
2023/03/12 08:13:19;;;;;;;21.75;9.38;;;;;;;3.59;100.00;100590.75;5070092;28;20429;-71
2023/03/12 08:15:45;;;;;;;18.95;6.78;;;;;;;3.62;100.00;100587.94;5072417;28;20061;-71
2023/03/12 08:18:10;;;;;;;22.80;8.10;;;;;;;3.64;100.00;100591.34;5074217;28;20380;-71
2023/03/12 08:20:35;;;;;;;20.20;8.10;;;;;;;3.68;100.00;100590.28;5074914;28;20056;-71
2023/03/12 08:23:00;;;;;;;19.77;7.22;;;;;;;3.72;100.00;100591.00;5074108;28;20051;-71
2023/03/12 08:25:26;;;;;;;27.38;8.07;;;;;;;3.78;100.00;100590.69;5075519;28;20032;-70
2023/03/12 08:27:51;;;;;;;17.02;6.80;;;;;;;3.81;100.00;100595.88;5074848;28;20044;-70
2023/03/12 08:30:17;;;;;;;19.27;7.80;;;;;;;3.87;100.00;100604.50;5073818;28;20089;-71
2023/03/12 08:32:42;;;;;;;20.83;7.55;;;;;;;3.90;100.00;100602.53;5067920;28;20024;-70
2023/03/12 08:35:09;;;;;;;21.30;7.80;;;;;;;3.95;100.00;100602.28;5072135;28;20037;-71
2023/03/12 08:37:34;;;;;;;20.27;8.48;;;;;;;4.01;100.00;100604.63;5074954;28;20111;-70
2023/03/12 08:40:01;;;;;;;18.38;7.35;;;;;;;4.04;100.00;100607.13;5071804;28;20073;-70
2023/03/12 08:42:26;;;;;;;19.35;7.07;;;;;;;4.09;100.00;100613.09;5074761;28;20108;-71
2023/03/12 08:44:51;;;;;;;20.05;7.20;;;;;;;4.14;100.00;100613.75;5074359;28;20442;-71
2023/03/12 08:47:17;;;;;;;18.58;8.07;;;;;;;4.19;100.00;100611.72;5074273;28;20091;-70
2023/03/12 08:49:42;;;;;;;20.58;7.47;;;;;;;4.25;100.00;100625.66;5072900;28;20024;-71
2023/03/12 08:52:07;;;;;;;20.35;7.80;;;;;;;4.30;100.00;100629.78;5073564;28;20024;-70
2023/03/12 08:54:33;;;;;;;22.17;9.40;;;;;;;4.34;100.00;100626.03;5070010;28;20024;-70
2023/03/12 08:56:58;;;;;;;22.20;9.85;;;;;;;4.40;100.00;100626.66;5071817;28;20078;-71
2023/03/12 08:59:24;;;;;;;24.30;10.07;;;;;;;4.46;100.00;100639.66;5067728;28;20077;-72
2023/03/12 09:01:49;;;;;;;26.95;11.35;;;;;;;4.53;100.00;100635.72;5070605;28;20048;-71
2023/03/12 09:04:15;;;;;;;25.10;11.50;;;;;;;4.60;100.00;100625.59;5068036;28;20106;-71
2023/03/12 09:06:41;;;;;;;27.73;12.18;;;;;;;4.69;100.00;100630.47;5071558;28;20053;-70
2023/03/12 09:09:07;;;;;;;27.77;13.75;;;;;;;4.76;100.00;100631.88;5069802;28;20041;-71
2023/03/12 09:11:34;;;;;;;25.25;12.95;;;;;;;4.84;100.00;100632.31;5064702;28;20039;-71
2023/03/12 09:14:00;;;;;;;26.65;13.82;;;;;;;4.90;100.00;100629.34;5072294;28;20027;-70
2023/03/12 09:16:26;;;;;;;29.45;14.05;;;;;;;5.00;100.00;100629.69;5068706;28;20066;-71
2023/03/12 09:18:52;;;;;;;25.08;13.45;;;;;;;5.08;100.00;100618.63;5071123;28;20477;-72
2023/03/12 09:21:17;;;;;;;28.70;14.32;;;;;;;5.16;100.00;100627.06;5071984;28;20059;-71
2023/03/12 09:23:43;;;;;;;28.25;14.25;;;;;;;5.21;100.00;100625.03;5070727;28;20028;-71
2023/03/12 09:26:12;;;;;;;26.77;13.48;;;;;;;5.30;100.00;100625.44;5072924;28;20024;-71
2023/03/12 09:28:37;;;;;;;25.88;13.90;;;;;;;5.35;100.00;100624.25;5071968;28;20103;-71
2023/03/12 09:31:04;;;;;;;27.25;15.23;;;;;;;5.44;100.00;100617.56;5070238;28;20412;-71
2023/03/12 09:33:29;;;;;;;29.38;15.25;;;;;;;5.50;100.00;100630.53;5071015;28;20028;-71
2023/03/12 09:35:56;;;;;;;26.70;14.73;;;;;;;5.59;100.00;100623.84;5069908;28;20017;-71
2023/03/12 09:38:22;;;;;;;28.33;15.90;;;;;;;5.66;100.00;100635.03;5071419;28;20035;-71
2023/03/12 09:40:47;;;;;;;27.83;16.60;;;;;;;5.73;100.00;100625.75;5070329;28;20107;-72
2023/03/12 09:43:44;;;;;;;30.88;17.17;;;;;;;5.81;100.00;100623.47;5054311;28;20495;-70
2023/03/12 09:46:18;;;;;;;28.77;16.13;;;;;;;5.88;100.00;100627.50;5035111;28;20048;-71
2023/03/12 09:48:44;;;;;;;28.50;15.70;;;;;;;6.00;100.00;100635.81;5073236;28;20078;-71
2023/03/12 09:51:19;;;;;;;28.45;16.02;;;;;;;6.05;100.00;100644.41;5071072;28;20077;-71
2023/03/12 09:53:52;;;;;;;28.83;15.90;;;;;;;6.09;100.00;100645.94;5066214;28;20107;-71
2023/03/12 09:56:20;;;;;;;29.48;17.23;;;;;;;6.16;100.00;100655.31;5069863;28;20082;-71
2023/03/12 09:58:47;;;;;;;28.15;17.02;;;;;;;6.19;100.00;100657.78;5067693;28;20375;-72
2023/03/12 10:02:07;;;;;;;29.33;16.77;;;;;;;6.23;100.00;100659.34;5069453;28;20131;-71
2023/03/12 10:04:56;;;;;;;28.60;17.20;;;;;;;6.29;100.00;100650.97;5036156;28;20048;-71
2023/03/12 10:07:33;;;;;;;31.20;17.38;;;;;;;6.36;100.00;100658.63;5069582;28;20032;-71
2023/03/12 10:10:01;;;;;;;29.80;17.27;;;;;;;6.41;100.00;100665.44;5053612;28;20086;-70
2023/03/12 10:12:32;;;;;;;34.10;18.15;;;;;;;6.45;100.00;100664.28;5069984;28;20403;-71
2023/03/12 10:15:13;;;;;;;30.88;17.23;;;;;;;6.50;100.00;100665.81;5073259;28;20379;-71
2023/03/12 10:18:15;;;;;;;30.23;16.60;;;;;;;6.57;100.00;100661.84;5072242;28;20025;-71
2023/03/12 10:21:15;;;;;;;35.03;18.48;;;;;;;6.61;100.00;100663.38;5071558;28;20027;-71
2023/03/12 10:24:05;;;;;;;32.35;18.42;;;;;;;6.64;100.00;100666.72;5004723;28;20137;-71
2023/03/12 10:26:35;;;;;;;;;;;;;;;6.67;100.00;100659.47;4990640;28;20053;-71
2023/03/12 10:29:09;;;;;;;33.47;17.40;;;;;;;6.72;100.00;100665.38;4999210;28;19909;-71
2023/03/12 10:31:45;;;;;;;34.45;18.33;;;;;;;6.75;100.00;100662.53;5003745;28;20532;-73
2023/03/12 10:34:20;;;;;;;36.88;18.45;;;;;;;6.78;100.00;100662.38;5002947;28;20082;-71
2023/03/12 10:36:45;;;;;;;40.75;19.73;;;;;;;6.81;100.00;100665.69;5005109;28;20049;-71
2023/03/12 10:39:16;;;;;;;34.03;20.23;;;;;;;6.90;100.00;100663.44;5005857;28;20033;-71
2023/03/12 10:41:44;;;;;;;39.65;21.60;;;;;;;6.96;100.00;100663.91;5003695;28;20026;-70
2023/03/12 10:44:18;;;;;;;36.88;20.05;;;;;;;7.00;100.00;100652.09;4990863;28;20486;-71
2023/03/12 10:47:11;;;;;;;41.55;22.48;;;;;;;7.05;100.00;100658.97;5008260;28;20161;-72
2023/03/12 10:49:37;;;;;;;38.50;19.30;;;;;;;7.14;100.00;100650.38;5010157;28;20108;-71
2023/03/12 10:52:04;;;;;;;36.80;20.02;;;;;;;7.18;100.00;100646.56;5010804;28;20116;-70
2023/03/12 10:54:39;;;;;;;38.80;20.65;;;;;;;7.26;100.00;100648.72;5009553;28;20037;-71
2023/03/12 10:57:05;;;;;;;43.15;19.88;;;;;;;7.30;100.00;100655.63;5020121;28;20109;-74
2023/03/12 10:59:34;;;;;;;35.95;17.85;;;;;;;7.35;100.00;100654.38;5067812;28;20044;-73
2023/03/12 11:02:00;;;;;;;36.78;19.17;;;;;;;7.47;100.00;100649.22;5069461;28;20082;-73
2023/03/12 11:04:31;;;;;;;35.38;18.02;;;;;;;7.50;100.00;100647.19;5052106;28;20016;-73
2023/03/12 11:07:21;;;;;;;39.33;18.58;;;;;;;7.54;100.00;100647.88;5069067;28;20040;-73
2023/03/12 11:10:02;;;;;;;;;;;;;;;7.56;100.00;100656.63;5068862;28;20507;-73
2023/03/12 11:12:29;;;;;;;37.05;16.73;;;;;;;7.66;100.00;100662.28;5072008;28;19951;-73
2023/03/12 11:14:55;;;;;;;33.95;16.80;;;;;;;7.74;100.00;100659.09;5052766;28;20027;-73
2023/03/12 11:17:24;;;;;;;40.97;18.08;;;;;;;7.75;100.00;100666.16;5071563;28;20086;-73
2023/03/12 11:19:49;;;;;;;33.15;14.60;;;;;;;7.75;100.00;100672.38;5073008;28;20043;-73
2023/03/12 11:22:27;;;;;;;37.00;15.65;;;;;;;7.78;100.00;100674.00;5075986;28;20024;-73